AST,Max TemperatureF,Mean TemperatureF,Min TemperatureF,Max Dew PointF,MeanDew PointF,Min DewpointF,Max Humidity, Mean Humidity, Min Humidity, Max Sea Level PressureIn, Mean Sea Level PressureIn, Min Sea Level PressureIn, Max VisibilityMiles, Mean VisibilityMiles, Min VisibilityMiles, Max Wind SpeedMPH, Mean Wind SpeedMPH, Max Gust SpeedMPH,PrecipitationIn, CloudCover, Events, WindDirDegrees
2014-1-1,84,78,72,77,73,71,94,84,69,30.01,29.94,29.89,11,6,2,21,13,,0.28,5,Rain,86
2014-1-2,85,79,73,75,74,72,89,78,65,29.95,29.90,29.86,9,7,6,20,17,29,0.01,3,Rain,92
2014-1-3,84,80,76,75,73,71,84,77,64,29.98,29.92,29.86,14,7,6,20,15,,0.04,2,Rain,100
2014-1-4,84,78,71,73,72,71,100,82,66,30.04,29.95,29.89,12,7,5,18,11,,0.28,3,Rain,95
2014-1-5,84,79,74,75,73,72,96,80,70,30.01,29.95,29.92,12,7,6,21,14,,0.35,3,Rain,104
2014-1-6,83,78,72,77,75,72,100,88,76,30.01,29.95,29.91,11,7,4,20,12,,0.35,3,Rain,102
2014-1-7,83,79,75,79,74,70,94,84,74,30.01,29.94,29.89,9,7,5,23,15,,0.12,3,Rain,88
2014-1-8,84,79,74,73,70,66,83,72,54,30.01,29.95,29.89,14,8,6,22,15,33,0.12,2,,91
2014-1-9,84,77,70,73,72,70,94,80,65,30.04,29.96,29.92,12,7,6,21,15,,0.12,2,Rain,95
2014-1-10,82,78,73,77,73,72,96,87,75,30.01,29.95,29.89,11,7,5,21,11,,0.08,3,Rain,96
2014-1-11,84,78,71,73,72,70,94,79,63,30.04,29.98,29.92,14,7,6,21,11,,0.04,2,Rain,80
2014-1-12,85,79,73,74,73,71,89,79,64,30.04,29.99,29.95,12,7,5,21,13,,0.01,2,Rain,91
2014-1-13,84,78,73,75,72,70,94,76,60,30.04,29.99,29.95,11,7,6,23,14,36,0.00,2,Rain,89
2014-1-14,83,78,73,72,69,63,89,71,51,30.06,29.99,29.95,19,8,6,20,15,,0.00,2,Rain,90
2014-1-15,83,78,73,72,67,63,83,67,51,30.04,29.97,29.92,16,8,6,20,13,,0.00,2,,81
2014-1-16,83,78,72,72,69,64,83,70,57,30.01,29.95,29.92,16,8,6,22,12,,0.00,1,,95
2014-1-17,84,79,74,75,73,72,89,80,66,30.01,29.96,29.92,16,8,6,25,15,,0.00,3,Rain,92
2014-1-18,85,81,77,75,75,73,89,81,68,30.06,29.99,29.92,11,7,6,22,17,33,0.00,2,,102
2014-1-19,84,80,77,77,74,72,94,79,66,30.05,29.99,29.95,7,6,5,23,17,,0.00,2,,98
2014-1-20,83,78,74,73,71,70,89,76,58,30.04,29.98,29.92,15,7,6,18,12,,0.00,2,,93
2014-1-21,82,77,72,73,71,68,89,77,66,30.01,29.94,29.89,14,8,6,58,16,,0.01,2,,100
2014-1-22,83,78,74,75,74,72,94,82,69,30.01,29.95,29.89,14,8,6,23,15,,0.00,1,Rain,116
2014-1-23,86,80,75,74,73,72,89,76,61,30.04,29.97,29.92,14,8,6,21,13,,0.02,3,,92
2014-1-24,85,78,72,73,72,70,100,78,56,30.01,29.95,29.92,15,8,6,20,10,,0.00,2,,93
2014-1-25,85,79,73,73,71,68,94,77,53,29.99,29.93,29.86,16,8,6,18,10,,0.20,2,Rain,94
2014-1-26,84,78,71,74,72,71,100,81,64,30.00,29.93,29.86,14,7,6,24,15,,0.04,3,Rain,93
2014-1-27,84,78,73,73,72,70,94,80,61,29.99,29.93,29.89,14,7,6,25,15,36,0.12,4,Rain,95
2014-1-28,84,77,70,74,71,70,94,77,59,30.02,29.96,29.89,14,7,6,21,15,37,0.01,2,Rain,94
2014-1-29,84,78,71,72,71,68,89,75,58,30.01,29.96,29.89,14,7,5,21,13,,0.02,2,Rain,90
2014-1-30,83,78,73,72,70,69,83,73,57,30.01,29.95,29.92,14,8,6,20,16,,0.00,2,Rain,89
2014-1-31,84,78,73,71,70,68,88,73,56,29.99,29.93,29.89,16,8,6,21,12,,0.00,1,,92